Time;durP1;ratioP1;P1;durP2;ratioP2;P2;SDS_P1;SDS_P2;PMS_P1;PMS_P2;Temp;Humidity;BMP_temperature;BMP_pressure;BME280_temperature;BME280_humidity;BME280_pressure;Samples;Min_cycle;Max_cycle;Signal;HPM_P1;HPM_P2
2022/01/12 00:03:30;;;;;;;309.27;91.75;;;;;;;-5.45;83.81;101279.25;8306854;28;20063;-69
2022/01/12 00:07:30;;;;;;;314.65;91.80;;;;;;;-5.42;83.40;101278.94;8342569;28;20047;-69
2022/01/12 00:11:32;;;;;;;305.50;89.75;;;;;;;-5.41;83.51;101270.06;8355951;28;20203;-69
2022/01/12 00:15:33;;;;;;;327.40;91.70;;;;;;;-5.43;83.46;101266.75;8359035;28;20060;-70
2022/01/12 00:19:34;;;;;;;306.85;89.85;;;;;;;-5.47;83.66;101270.66;8307183;28;20041;-69
2022/01/12 00:23:37;;;;;;;285.17;89.55;;;;;;;-5.62;84.37;101263.31;8422892;27;20051;-69
2022/01/12 00:36:17;;;;;;;296.98;85.78;;;;;;;-5.50;84.05;101268.34;8488730;27;20444;-69
2022/01/12 00:40:17;;;;;;;284.75;82.20;;;;;;;-5.50;84.74;101265.72;8478493;27;20058;-70
2022/01/12 00:44:23;;;;;;;291.50;85.50;;;;;;;-5.46;84.25;101261.78;8475363;27;20039;-69
2022/01/12 00:48:24;;;;;;;283.15;80.40;;;;;;;-5.45;84.10;101268.72;8482378;27;20047;-69
2022/01/12 00:52:25;;;;;;;285.90;84.22;;;;;;;-5.43;84.50;101272.00;8469813;27;20054;-70
2022/01/12 00:56:26;;;;;;;273.90;82.40;;;;;;;-5.43;84.91;101264.09;8481201;27;20104;-70
2022/01/12 01:00:27;;;;;;;273.60;79.78;;;;;;;-5.36;84.44;101267.78;8455560;27;20474;-69
2022/01/12 01:04:28;;;;;;;272.83;80.22;;;;;;;-5.34;84.32;101271.91;8475989;27;20418;-70
2022/01/12 01:08:29;;;;;;;287.83;83.38;;;;;;;-5.39;85.05;101268.13;8459959;27;20130;-70
2022/01/12 01:12:31;;;;;;;283.67;82.65;;;;;;;-5.36;84.71;101270.44;8479710;27;20080;-69
2022/01/12 01:29:21;;;;;;;261.48;75.22;;;;;;;-5.39;86.14;101273.38;8478906;27;20052;-71
2022/01/12 01:33:22;;;;;;;273.05;77.90;;;;;;;-5.43;86.86;101266.75;8444992;27;20139;-69
2022/01/12 01:37:22;;;;;;;255.35;74.70;;;;;;;-5.45;87.44;101252.91;8467859;27;20047;-69
2022/01/12 01:41:23;;;;;;;262.23;76.30;;;;;;;-5.44;86.97;101254.56;8463103;27;20050;-70
2022/01/12 01:54:08;;;;;;;249.70;73.30;;;;;;;-5.49;87.95;101251.53;8462523;27;20076;-69
2022/01/12 01:58:09;;;;;;;260.05;76.72;;;;;;;-5.46;87.43;101261.78;8495793;27;20132;-70
2022/01/12 02:02:10;;;;;;;261.50;71.38;;;;;;;-5.42;87.66;101263.13;8481584;27;20047;-69
2022/01/12 02:06:11;;;;;;;251.10;74.82;;;;;;;-5.41;87.53;101270.06;8472657;27;20509;-69
2022/01/12 02:10:14;;;;;;;265.58;73.65;;;;;;;-5.45;88.60;101263.44;8461997;28;20482;-70
2022/01/12 02:14:17;;;;;;;276.90;78.28;;;;;;;-5.44;88.61;101275.63;8473028;27;20044;-69
2022/01/12 02:39:57;;;;;;;272.05;74.05;;;;;;;-5.27;89.03;101258.97;8421928;28;20048;-69
2022/01/12 02:56:53;;;;;;;278.42;70.40;;;;;;;-5.16;89.88;101263.97;8417372;28;20526;-71
2022/01/12 03:05:44;;;;;;;260.40;69.63;;;;;;;-5.18;91.36;101250.16;8361694;28;20056;-69
2022/01/12 03:09:45;;;;;;;262.98;70.63;;;;;;;-5.11;90.85;101248.53;8349990;28;20092;-70
2022/01/12 03:13:47;;;;;;;250.85;68.55;;;;;;;-5.11;90.88;101243.28;8361033;28;20304;-69
2022/01/12 03:17:48;;;;;;;257.13;66.70;;;;;;;-5.16;91.09;101240.28;8327218;28;20527;-70
2022/01/12 03:21:48;;;;;;;262.25;67.32;;;;;;;-5.15;91.25;101241.94;8387264;28;20251;-69
2022/01/12 03:25:49;;;;;;;229.07;67.32;;;;;;;-5.14;90.82;101246.22;8385060;28;20492;-69
2022/01/12 03:29:55;;;;;;;260.50;66.82;;;;;;;-5.21;91.35;101251.28;8379816;28;20052;-69
2022/01/12 03:38:20;;;;;;;228.27;64.95;;;;;;;-5.31;92.09;101244.47;8291667;28;20057;-70
2022/01/12 03:42:21;;;;;;;225.77;63.10;;;;;;;-5.39;92.65;101247.06;8377558;28;20098;-70
2022/01/12 03:46:45;;;;;;;222.85;66.93;;;;;;;-5.41;93.21;101249.00;8400426;28;20049;-70
2022/01/12 03:50:48;;;;;;;239.25;65.93;;;;;;;-5.42;93.19;101252.59;8405888;28;20059;-70
2022/01/12 03:54:48;;;;;;;234.23;65.85;;;;;;;-5.41;93.20;101246.38;8415226;28;20053;-69
2022/01/12 03:58:49;;;;;;;242.60;68.75;;;;;;;-5.44;93.08;101244.03;8405567;28;20051;-69
2022/01/12 04:02:50;;;;;;;231.88;62.80;;;;;;;-5.41;92.80;101243.72;8414501;28;20092;-68
2022/01/12 04:11:10;;;;;;;226.35;61.88;;;;;;;-5.62;92.98;101237.00;8404154;28;20049;-69
2022/01/12 04:15:11;;;;;;;231.30;65.05;;;;;;;-5.64;93.52;101238.94;8431321;28;20100;-70
2022/01/12 04:19:11;;;;;;;238.60;61.58;;;;;;;-5.59;92.91;101230.59;8430447;28;20151;-69
2022/01/12 04:23:17;;;;;;;225.18;58.88;;;;;;;-5.58;92.68;101238.34;8453308;28;20533;-70
2022/01/12 04:27:17;;;;;;;227.00;62.10;;;;;;;-5.50;92.33;101245.47;8401021;28;20036;-69
2022/01/12 04:31:19;;;;;;;231.02;59.47;;;;;;;-5.49;92.14;101230.50;8439476;28;20052;-68
2022/01/12 04:35:24;;;;;;;226.50;62.47;;;;;;;-5.43;92.10;101233.34;8458997;28;20741;-69
2022/01/12 04:39:25;;;;;;;236.52;59.75;;;;;;;-5.46;92.29;101240.72;8465660;28;20414;-69
2022/01/12 04:43:26;;;;;;;222.07;58.88;;;;;;;-5.49;92.66;101241.03;8440670;28;20047;-70
2022/01/12 04:47:44;;;;;;;221.30;60.47;;;;;;;-5.40;92.48;101235.69;8431828;28;20059;-69
2022/01/12 04:51:45;;;;;;;225.40;58.90;;;;;;;-5.55;92.38;101231.91;8430382;28;20047;-69
2022/01/12 04:55:47;;;;;;;207.82;58.35;;;;;;;-5.60;92.92;101235.03;8430406;28;20059;-69
2022/01/12 05:00:04;;;;;;;239.38;61.40;;;;;;;-5.58;92.86;101235.69;8458998;28;20048;-69
2022/01/12 05:08:38;;;;;;;201.48;56.78;;;;;;;-5.68;93.52;101236.78;8447468;28;20130;-68
2022/01/12 05:12:50;;;;;;;201.18;58.03;;;;;;;-5.69;93.19;101235.94;8461449;27;20051;-69
2022/01/12 05:16:51;;;;;;;190.00;55.78;;;;;;;-5.83;93.56;101239.13;8487114;27;20104;-70
2022/01/12 05:20:52;;;;;;;189.55;55.42;;;;;;;-5.80;93.42;101244.06;8476929;27;20406;-69
2022/01/12 05:24:53;;;;;;;192.57;54.67;;;;;;;-5.84;93.72;101253.25;8480672;27;20054;-70
2022/01/12 05:28:54;;;;;;;196.05;54.58;;;;;;;-5.81;93.52;101247.66;8488117;27;20091;-69
2022/01/12 05:32:54;;;;;;;192.25;54.33;;;;;;;-5.80;93.14;101259.84;8484053;27;20042;-69
2022/01/12 05:36:55;;;;;;;196.68;54.05;;;;;;;-5.87;93.41;101264.13;8492786;27;20394;-69
2022/01/12 05:41:01;;;;;;;188.05;54.05;;;;;;;-5.91;93.44;101273.25;8476813;27;20039;-69
2022/01/12 05:45:02;;;;;;;199.20;54.30;;;;;;;-5.85;93.23;101266.53;8473615;27;20039;-69
2022/01/12 05:53:22;;;;;;;186.90;53.00;;;;;;;-5.91;93.18;101283.78;8493765;27;20047;-70
2022/01/12 05:57:25;;;;;;;190.63;54.88;;;;;;;-5.86;92.87;101296.47;8477801;27;20479;-70
2022/01/12 06:01:26;;;;;;;197.15;54.55;;;;;;;-5.83;92.28;101304.91;8483251;27;20039;-69
2022/01/12 06:05:28;;;;;;;193.63;54.78;;;;;;;-5.79;92.14;101314.16;8486456;27;20213;-69
2022/01/12 06:09:28;;;;;;;199.60;55.90;;;;;;;-5.70;91.76;101307.16;8488843;27;20042;-69
2022/01/12 06:13:29;;;;;;;211.80;58.25;;;;;;;-5.72;91.38;101304.69;8485245;27;20047;-70
2022/01/12 06:17:30;;;;;;;230.68;62.08;;;;;;;-5.74;91.40;101295.28;8436745;27;20036;-69
2022/01/12 06:21:31;;;;;;;207.18;60.78;;;;;;;-5.75;91.34;101304.97;8482357;27;20121;-70
2022/01/12 06:25:32;;;;;;;190.43;53.47;;;;;;;-5.86;91.51;101302.53;8463570;27;20047;-71
2022/01/12 06:29:42;;;;;;;201.63;54.53;;;;;;;-5.90;91.85;101305.66;8490585;27;20047;-70
2022/01/12 06:33:46;;;;;;;206.48;56.65;;;;;;;-5.95;91.85;101302.66;8478706;27;20092;-70
2022/01/12 06:37:47;;;;;;;205.38;55.25;;;;;;;-6.03;92.38;101292.88;8450446;28;20085;-69
2022/01/12 06:41:50;;;;;;;211.60;56.97;;;;;;;-5.97;92.60;101284.38;8464208;28;20047;-69
2022/01/12 06:45:51;;;;;;;205.38;57.03;;;;;;;-5.89;92.59;101292.38;8484924;28;20047;-69
2022/01/12 06:49:52;;;;;;;215.60;58.15;;;;;;;-5.85;92.32;101293.69;8466501;28;20077;-69
2022/01/12 06:53:54;;;;;;;200.32;56.60;;;;;;;-5.92;92.24;101313.69;8486990;28;20048;-69
2022/01/12 06:57:54;;;;;;;195.65;54.80;;;;;;;-5.93;92.28;101312.06;8485111;28;20555;-69
2022/01/12 07:01:55;;;;;;;207.23;59.33;;;;;;;-5.87;91.89;101324.63;8480919;28;20047;-70
2022/01/12 07:05:56;;;;;;;219.98;64.30;;;;;;;-5.80;91.59;101328.28;8483781;28;20039;-69
2022/01/12 07:09:56;;;;;;;243.90;71.50;;;;;;;-5.82;91.35;101319.72;8487903;28;20471;-69
2022/01/12 07:13:57;;;;;;;208.15;62.75;;;;;;;-5.84;91.33;101313.75;8479124;28;20052;-70
2022/01/12 07:18:03;;;;;;;192.85;57.25;;;;;;;-5.91;91.79;101315.34;8481755;28;20127;-69
2022/01/12 07:22:04;;;;;;;196.50;55.53;;;;;;;-5.84;91.92;101312.94;8480905;28;20040;-69
2022/01/12 07:26:04;;;;;;;186.75;52.90;;;;;;;-5.73;91.39;101318.81;8481392;28;20057;-70
2022/01/12 07:30:06;;;;;;;185.27;53.20;;;;;;;-5.66;91.25;101333.00;8483812;28;20184;-69
2022/01/12 07:34:06;;;;;;;201.50;58.05;;;;;;;-5.53;90.91;101346.66;8486706;28;20043;-69
2022/01/12 07:38:08;;;;;;;204.60;58.88;;;;;;;-5.42;90.67;101331.59;8480831;28;20043;-70
2022/01/12 07:42:08;;;;;;;176.13;52.72;;;;;;;-5.48;90.64;101327.75;8478410;28;20043;-69
2022/01/12 07:46:09;;;;;;;190.30;53.90;;;;;;;-5.45;90.87;101331.91;8479956;27;20048;-70
2022/01/12 07:50:10;;;;;;;183.82;54.33;;;;;;;-5.34;90.84;101323.78;8486228;27;20050;-69
2022/01/12 07:54:11;;;;;;;216.50;58.42;;;;;;;-5.26;90.99;101331.75;8493210;27;20042;-69
2022/01/12 07:58:12;;;;;;;196.02;58.05;;;;;;;-5.12;90.67;101334.66;8492464;27;20126;-69
2022/01/12 08:02:13;;;;;;;200.32;58.45;;;;;;;-5.11;91.11;101331.03;8486226;27;20487;-70
2022/01/12 08:06:14;;;;;;;198.45;54.35;;;;;;;-5.10;91.57;101326.59;8495146;27;20054;-70
2022/01/12 08:10:16;;;;;;;199.85;56.75;;;;;;;-5.06;91.78;101321.84;8474654;27;20131;-69
2022/01/12 08:14:16;;;;;;;204.65;59.15;;;;;;;-4.97;91.92;101320.94;8465610;28;20059;-69
2022/01/12 08:18:17;;;;;;;220.18;68.95;;;;;;;-5.02;91.49;101339.81;8474482;27;20039;-69
2022/01/12 08:22:18;;;;;;;212.80;60.35;;;;;;;-4.93;91.15;101338.91;8481010;27;20126;-70
2022/01/12 08:26:19;;;;;;;208.45;61.88;;;;;;;-4.88;90.64;101335.81;8492479;27;20418;-69
2022/01/12 08:30:28;;;;;;;243.63;70.38;;;;;;;-4.84;90.58;101326.63;8477608;27;20111;-69
2022/01/12 08:34:29;;;;;;;294.45;94.82;;;;;;;-4.89;90.78;101324.44;8497846;27;20499;-68
2022/01/12 08:38:30;;;;;;;213.60;63.55;;;;;;;-4.92;90.88;101316.88;8498545;27;20130;-69
2022/01/12 08:42:31;;;;;;;351.95;128.40;;;;;;;-4.96;91.81;101307.59;8479750;27;20055;-68
2022/01/12 08:46:32;;;;;;;226.93;66.55;;;;;;;-4.85;91.76;101304.69;8498150;27;20043;-69
2022/01/12 08:50:33;;;;;;;246.15;67.22;;;;;;;-4.79;92.05;101319.91;8444832;27;20138;-70
2022/01/12 08:54:33;;;;;;;245.32;65.22;;;;;;;-4.65;92.50;101300.03;8465832;27;20047;-70
2022/01/12 08:58:37;;;;;;;232.13;62.95;;;;;;;-4.56;91.66;101303.56;8410634;28;20476;-70
2022/01/12 09:02:37;;;;;;;235.30;62.72;;;;;;;-4.52;91.84;101310.16;8445202;27;20047;-69
2022/01/12 09:06:38;;;;;;;228.68;68.18;;;;;;;-4.62;92.23;101314.72;8497919;27;20058;-70
2022/01/12 09:10:39;;;;;;;227.48;64.40;;;;;;;-4.54;92.61;101301.56;8469037;27;20075;-70
2022/01/12 09:14:40;;;;;;;238.35;68.60;;;;;;;-4.40;92.15;101303.63;8497489;27;20134;-70
2022/01/12 09:18:42;;;;;;;250.50;69.72;;;;;;;-4.36;92.46;101310.25;8469890;27;20044;-69
2022/01/12 09:22:43;;;;;;;260.88;77.25;;;;;;;-4.30;92.21;101309.59;8479452;27;20050;-70
2022/01/12 09:26:44;;;;;;;265.15;74.38;;;;;;;-4.18;92.41;101308.34;8497003;27;20071;-71
2022/01/12 09:30:45;;;;;;;273.85;77.75;;;;;;;-3.97;91.75;101300.00;8496259;27;20059;-71
2022/01/12 09:34:47;;;;;;;248.48;74.75;;;;;;;-3.93;91.83;101311.88;8497097;27;20080;-70
2022/01/12 09:38:48;;;;;;;220.40;61.92;;;;;;;-4.01;91.83;101325.88;8496566;27;20130;-69
2022/01/12 09:42:49;;;;;;;215.68;62.97;;;;;;;-3.86;91.05;101316.34;8496555;27;20146;-69
2022/01/12 09:46:50;;;;;;;231.68;68.53;;;;;;;-3.86;90.92;101308.41;8496400;27;20065;-69
2022/01/12 09:50:51;;;;;;;250.10;69.32;;;;;;;-3.93;91.45;101312.72;8477831;27;20051;-70
2022/01/12 09:54:52;;;;;;;226.43;67.15;;;;;;;-3.90;91.67;101300.97;8496150;27;20463;-70
2022/01/12 09:58:55;;;;;;;236.80;67.00;;;;;;;-3.85;91.71;101294.22;8496206;27;20035;-69
2022/01/12 10:02:56;;;;;;;234.32;66.57;;;;;;;-3.85;91.44;101286.31;8496046;27;20043;-69
2022/01/12 10:06:58;;;;;;;217.35;59.28;;;;;;;-3.75;91.48;101282.72;8458923;27;20193;-70
2022/01/12 10:11:07;;;;;;;198.25;59.53;;;;;;;-3.70;91.26;101285.69;8463683;28;20063;-69
2022/01/12 10:15:10;;;;;;;188.88;57.08;;;;;;;-3.66;90.86;101276.47;8461829;28;20488;-70
2022/01/12 10:19:11;;;;;;;191.20;56.92;;;;;;;-3.77;91.33;101301.34;8425786;28;20048;-69
2022/01/12 10:23:15;;;;;;;183.88;56.58;;;;;;;-3.75;91.17;101303.84;8461406;28;20054;-69
2022/01/12 10:27:18;;;;;;;183.55;56.25;;;;;;;-3.65;91.37;101293.97;8461306;28;20492;-70
2022/01/12 10:31:18;;;;;;;207.20;59.13;;;;;;;-3.46;90.88;101277.78;8461262;28;20059;-69
2022/01/12 10:35:27;;;;;;;194.35;58.30;;;;;;;-3.36;90.98;101283.72;8461308;28;20411;-69
2022/01/12 10:39:29;;;;;;;173.35;50.95;;;;;;;-3.03;90.67;101284.53;8460975;28;20059;-69
2022/01/12 10:43:34;;;;;;;160.02;48.25;;;;;;;-2.74;90.19;101273.38;8461647;28;20418;-69
2022/01/12 10:47:34;;;;;;;153.52;47.75;;;;;;;-2.67;89.29;101258.50;8460848;28;20104;-68
2022/01/12 10:51:35;;;;;;;145.32;46.17;;;;;;;-2.42;88.31;101269.81;8460916;28;20126;-69
2022/01/12 10:55:36;;;;;;;151.05;48.15;;;;;;;-2.32;87.95;101258.03;8460910;28;20128;-69
2022/01/12 10:59:37;;;;;;;143.60;45.13;;;;;;;-2.24;87.73;101255.34;8460732;28;20077;-69
2022/01/12 11:03:38;;;;;;;154.52;48.03;;;;;;;-2.20;87.69;101251.34;8460645;28;20044;-69
2022/01/12 11:07:39;;;;;;;171.07;51.63;;;;;;;-2.37;88.38;101233.91;8460835;28;20388;-69
2022/01/12 11:11:40;;;;;;;145.73;46.85;;;;;;;-2.20;87.97;101230.19;8460436;28;20047;-69
2022/01/12 11:15:42;;;;;;;148.93;45.55;;;;;;;-2.14;87.77;101234.78;8460634;28;20051;-69
2022/01/12 11:19:50;;;;;;;140.35;43.03;;;;;;;-2.07;86.65;101228.78;8462714;28;20050;-69
2022/01/12 11:23:51;;;;;;;132.60;41.67;;;;;;;-2.17;86.43;101239.59;8449039;28;20503;-70
2022/01/12 11:28:07;;;;;;;129.40;39.70;;;;;;;-2.14;86.63;101245.38;8463965;28;20055;-70
2022/01/12 11:32:11;;;;;;;128.93;40.58;;;;;;;-2.22;86.00;101229.50;8413924;28;20442;-70
2022/01/12 11:36:35;;;;;;;123.18;41.13;;;;;;;-2.27;86.42;101218.63;8466505;28;20043;-71
2022/01/12 11:40:38;;;;;;;145.52;43.03;;;;;;;-2.18;86.06;101217.59;8466144;28;20047;-70
2022/01/12 11:44:39;;;;;;;132.32;41.05;;;;;;;-2.18;85.76;101212.31;8466364;28;20040;-70
2022/01/12 11:48:45;;;;;;;145.75;47.75;;;;;;;-2.16;85.90;101202.34;8448124;28;20058;-70
2022/01/12 11:52:46;;;;;;;136.52;44.75;;;;;;;-2.15;86.11;101185.47;8466063;28;20048;-70
2022/01/12 11:56:56;;;;;;;132.32;40.08;;;;;;;-2.33;86.44;101187.59;8465874;28;20100;-69
2022/01/12 12:00:57;;;;;;;122.18;38.65;;;;;;;-2.40;85.78;101189.28;8465706;28;20048;-69
2022/01/12 12:04:59;;;;;;;116.57;37.80;;;;;;;-2.29;86.12;101186.25;8447372;28;20047;-70
2022/01/12 12:09:17;;;;;;;118.07;37.10;;;;;;;-2.27;86.28;101171.00;8465508;28;20080;-70
2022/01/12 12:13:21;;;;;;;110.07;37.58;;;;;;;-2.22;86.40;101163.34;8447194;28;20047;-69
2022/01/12 12:17:24;;;;;;;123.15;39.58;;;;;;;-1.93;86.38;101173.25;8465774;28;20126;-70
2022/01/12 12:21:25;;;;;;;132.90;42.53;;;;;;;-1.77;86.87;101167.00;8465152;28;20062;-70
2022/01/12 12:25:30;;;;;;;120.78;41.13;;;;;;;-1.73;86.95;101173.56;8465020;28;20139;-70
2022/01/12 12:29:31;;;;;;;122.80;42.88;;;;;;;-1.70;86.41;101167.94;8464820;28;20056;-70
2022/01/12 12:33:34;;;;;;;119.05;43.50;;;;;;;-1.66;86.69;101174.53;8463876;28;20449;-71
2022/01/12 12:37:40;;;;;;;129.45;41.80;;;;;;;-1.52;86.12;101171.06;8464775;28;20460;-69
2022/01/12 12:41:44;;;;;;;145.13;44.20;;;;;;;-1.38;86.01;101178.25;8446181;27;20094;-69
2022/01/12 12:45:59;;;;;;;142.00;44.42;;;;;;;-1.12;84.88;101182.28;8484535;27;20062;-69
2022/01/12 12:50:02;;;;;;;116.15;37.67;;;;;;;-0.86;84.47;101177.34;8480487;27;20107;-69
2022/01/12 12:54:03;;;;;;;102.07;37.42;;;;;;;-0.39;84.14;101168.94;8479449;27;20547;-69
2022/01/12 12:58:04;;;;;;;103.38;34.25;;;;;;;0.21;83.61;101165.06;8464465;28;20077;-70
2022/01/12 13:02:12;;;;;;;88.50;32.75;;;;;;;0.85;81.98;101174.53;8463895;28;20043;-69
2022/01/12 13:06:20;;;;;;;82.38;31.02;;;;;;;0.88;79.45;101194.63;8483929;27;20047;-70
2022/01/12 13:10:25;;;;;;;75.05;28.52;;;;;;;0.72;77.99;101192.25;8472107;27;20081;-70
2022/01/12 13:14:26;;;;;;;77.63;28.20;;;;;;;0.30;77.70;101191.31;8463670;28;20052;-70
2022/01/12 13:18:27;;;;;;;71.80;27.70;;;;;;;-0.17;78.14;101188.41;8471803;27;20138;-71
2022/01/12 13:22:39;;;;;;;70.88;26.95;;;;;;;-0.50;78.65;101188.84;8491287;27;20047;-69
2022/01/12 13:26:40;;;;;;;80.88;28.13;;;;;;;-0.64;78.87;101187.03;8481983;27;20051;-69
2022/01/12 13:31:09;;;;;;;73.53;27.95;;;;;;;-0.62;79.00;101169.06;8462962;28;20070;-70
2022/01/12 13:35:11;;;;;;;76.07;27.87;;;;;;;-0.53;78.27;101167.97;8292937;28;20045;-69
2022/01/12 13:39:12;;;;;;;81.68;29.40;;;;;;;-0.57;77.98;101166.69;8292801;28;20054;-69
2022/01/12 13:43:13;;;;;;;74.57;26.58;;;;;;;-0.75;78.76;101158.31;8292507;28;20107;-69
2022/01/12 13:47:25;;;;;;;73.50;26.63;;;;;;;-0.75;78.81;101158.31;8292351;28;20073;-70
2022/01/12 13:51:26;;;;;;;79.68;27.63;;;;;;;-0.79;78.95;101162.31;8292423;28;20097;-70
2022/01/12 13:55:27;;;;;;;74.25;26.42;;;;;;;-0.86;79.49;101161.44;8292275;28;20525;-69
2022/01/12 13:59:30;;;;;;;68.47;25.17;;;;;;;-0.77;79.51;101165.63;8292215;28;20180;-69
2022/01/12 14:03:39;;;;;;;76.15;27.13;;;;;;;-0.80;79.63;101152.75;8292156;28;20180;-70
2022/01/12 14:07:47;;;;;;;96.03;31.42;;;;;;;-0.78;79.85;101163.97;8278632;28;20041;-70
2022/01/12 14:11:49;;;;;;;83.55;29.95;;;;;;;-0.86;80.00;101166.75;8415703;28;20546;-71
2022/01/12 14:15:50;;;;;;;80.90;28.95;;;;;;;-0.91;80.33;101169.13;8443623;28;20058;-70
2022/01/12 14:19:54;;;;;;;87.53;31.83;;;;;;;-0.93;80.53;101171.13;8461512;28;20055;-70
2022/01/12 14:23:56;;;;;;;81.32;29.38;;;;;;;-0.96;81.04;101171.50;8461512;28;20491;-70
2022/01/12 14:27:57;;;;;;;89.25;30.25;;;;;;;-0.97;81.13;101175.16;8461327;28;20072;-69
2022/01/12 14:31:58;;;;;;;85.07;30.98;;;;;;;-0.92;81.14;101183.38;8461379;28;20051;-69
2022/01/12 14:35:59;;;;;;;85.70;32.53;;;;;;;-0.97;81.90;101175.97;8461529;28;20491;-69
2022/01/12 14:40:01;;;;;;;80.47;29.27;;;;;;;-0.97;81.53;101172.50;8461328;28;20063;-69
2022/01/12 14:44:02;;;;;;;93.40;33.38;;;;;;;-1.03;82.20;101165.28;8462157;28;20338;-69
2022/01/12 14:48:06;;;;;;;95.60;31.13;;;;;;;-0.95;82.05;101170.47;8472412;28;20047;-69
2022/01/12 14:52:07;;;;;;;90.35;32.50;;;;;;;-0.97;82.22;101164.53;8492445;28;20439;-69
2022/01/12 14:56:08;;;;;;;94.72;32.25;;;;;;;-1.00;82.81;101164.91;8499368;27;20043;-69
2022/01/12 15:00:16;;;;;;;92.60;33.72;;;;;;;-1.01;82.70;101164.09;8502008;27;20379;-70
2022/01/12 15:04:17;;;;;;;99.88;35.85;;;;;;;-1.04;83.19;101158.31;8502419;27;20043;-69
2022/01/12 15:08:20;;;;;;;95.07;33.70;;;;;;;-1.05;83.45;101156.66;8494386;27;20062;-69
2022/01/12 15:12:30;;;;;;;91.00;33.35;;;;;;;-1.06;83.75;101160.34;8458013;27;20546;-69
2022/01/12 15:16:32;;;;;;;97.10;33.85;;;;;;;-1.07;84.02;101148.09;8483669;27;20097;-69
2022/01/12 15:20:32;;;;;;;99.57;35.67;;;;;;;-1.07;84.21;101153.41;8481394;27;20101;-70
2022/01/12 15:24:33;;;;;;;100.22;35.67;;;;;;;-1.08;84.09;101138.50;8486337;27;20063;-70
2022/01/12 15:28:34;;;;;;;92.28;36.17;;;;;;;-1.09;84.30;101128.88;8482995;27;20047;-69
2022/01/12 15:32:35;;;;;;;97.97;35.42;;;;;;;-1.07;84.44;101121.56;8500267;27;20103;-69
2022/01/12 15:36:36;;;;;;;105.15;34.97;;;;;;;-1.09;84.50;101118.28;8483837;27;20169;-70
2022/01/12 15:40:39;;;;;;;97.72;35.58;;;;;;;-1.18;84.91;101130.00;8493603;27;20043;-69
2022/01/12 15:44:40;;;;;;;114.78;36.08;;;;;;;-1.18;85.31;101135.28;8496625;27;20043;-70
2022/01/12 15:48:41;;;;;;;98.25;34.17;;;;;;;-1.18;85.37;101122.03;8467849;28;20055;-69
2022/01/12 15:52:42;;;;;;;99.15;35.85;;;;;;;-1.15;85.28;101119.00;8449124;28;20548;-68
2022/01/12 15:56:43;;;;;;;95.60;34.83;;;;;;;-1.15;84.98;101119.00;8421290;27;20071;-69
2022/01/12 16:00:44;;;;;;;91.22;33.58;;;;;;;-1.18;85.37;101124.69;8491983;27;20387;-68
2022/01/12 16:04:47;;;;;;;102.50;35.67;;;;;;;-1.21;85.91;101119.72;8438391;27;20130;-69
2022/01/12 16:08:48;;;;;;;99.75;35.35;;;;;;;-1.21;85.92;101114.44;8471602;27;20044;-69
2022/01/12 16:12:49;;;;;;;103.43;36.42;;;;;;;-1.20;85.82;101113.44;8467426;27;20059;-70
2022/01/12 16:16:50;;;;;;;101.93;37.25;;;;;;;-1.15;85.44;101119.00;8484973;27;20047;-69
2022/01/12 16:20:52;;;;;;;95.63;32.28;;;;;;;-1.27;85.78;101100.91;8483648;27;20040;-71
2022/01/12 16:24:54;;;;;;;99.55;36.65;;;;;;;-1.36;86.17;101096.72;8467691;27;20055;-70
2022/01/12 16:28:55;;;;;;;101.68;37.13;;;;;;;-1.43;86.66;101106.38;8475642;27;20068;-70
2022/01/12 16:32:56;;;;;;;95.10;36.17;;;;;;;-1.35;86.46;101127.50;8473724;27;20043;-70
2022/01/12 16:36:58;;;;;;;108.28;37.45;;;;;;;-1.27;86.01;101132.72;8493032;27;20055;-70
2022/01/12 16:41:02;;;;;;;100.97;34.28;;;;;;;-1.22;86.52;101128.72;8464651;27;20409;-69
2022/01/12 16:45:04;;;;;;;103.68;35.90;;;;;;;-1.20;86.48;101127.50;8496757;27;20413;-70
2022/01/12 16:49:05;;;;;;;93.03;32.33;;;;;;;-1.15;86.53;101129.59;8445086;27;20085;-71
2022/01/12 16:53:06;;;;;;;94.63;32.03;;;;;;;-1.07;86.46;101137.50;8491902;27;20108;-70
2022/01/12 16:57:07;;;;;;;100.85;34.45;;;;;;;-0.97;86.28;101138.03;8468347;27;20494;-70
2022/01/12 17:01:08;;;;;;;91.18;31.73;;;;;;;-0.81;85.93;101148.44;8494020;27;20066;-70
2022/01/12 17:05:10;;;;;;;105.80;33.90;;;;;;;-0.71;86.10;101146.31;8446011;27;20383;-71
2022/01/12 17:09:10;;;;;;;83.40;28.88;;;;;;;-0.69;86.18;101141.66;8483122;27;20062;-69
2022/01/12 17:13:11;;;;;;;109.60;36.65;;;;;;;-0.67;86.16;101147.59;8467479;27;20059;-69
2022/01/12 17:17:21;;;;;;;103.75;35.25;;;;;;;-0.62;86.32;101142.53;8464524;28;20448;-69
2022/01/12 17:21:24;;;;;;;117.82;36.97;;;;;;;-0.60;86.39;101145.84;8480929;27;20043;-69
2022/01/12 17:25:28;;;;;;;110.00;36.97;;;;;;;-0.57;86.78;101161.38;8479448;27;20067;-72
2022/01/12 17:29:30;;;;;;;110.35;38.75;;;;;;;-0.50;86.84;101162.28;8468828;27;20047;-71
2022/01/12 17:33:33;;;;;;;115.05;38.70;;;;;;;-0.46;87.16;101158.25;8480614;27;20039;-69
2022/01/12 17:37:34;;;;;;;101.95;37.42;;;;;;;-0.44;86.64;101156.25;8472326;27;20101;-69
2022/01/12 17:41:42;;;;;;;129.23;40.90;;;;;;;-0.40;86.97;101145.25;8370384;28;20063;-70
2022/01/12 17:45:43;;;;;;;127.32;40.28;;;;;;;-0.40;87.08;101153.19;8463909;28;20105;-70
2022/01/12 17:54:04;;;;;;;124.55;42.42;;;;;;;-0.35;86.75;101148.16;8451747;27;20052;-69
2022/01/12 17:58:05;;;;;;;122.00;38.88;;;;;;;-0.32;87.28;101163.72;8473451;27;20120;-69
2022/01/12 18:02:06;;;;;;;133.48;42.75;;;;;;;-0.30;87.35;101140.44;8480533;27;20534;-70
2022/01/12 18:06:08;;;;;;;120.90;40.95;;;;;;;-0.28;87.50;101127.81;8497471;27;20112;-70
2022/01/12 18:10:09;;;;;;;116.28;38.42;;;;;;;-0.21;87.92;101128.72;8472204;27;20051;-70
2022/01/12 18:14:10;;;;;;;102.38;38.38;;;;;;;-0.16;87.71;101121.00;8491785;27;20078;-69
2022/01/12 18:18:12;;;;;;;108.80;36.08;;;;;;;-0.13;88.06;101120.59;8495738;27;20051;-70
2022/01/12 18:22:15;;;;;;;96.25;34.30;;;;;;;-0.09;88.54;101111.25;8495715;27;20049;-68
2022/01/12 18:26:17;;;;;;;99.28;34.30;;;;;;;-0.07;88.98;101109.22;8495347;27;20054;-68
2022/01/12 18:30:18;;;;;;;101.75;34.85;;;;;;;-0.03;89.31;101115.78;8494849;27;20040;-69
2022/01/12 18:34:19;;;;;;;95.97;35.55;;;;;;;0.06;89.90;101104.00;8463554;28;20104;-69
2022/01/12 18:38:19;;;;;;;93.85;33.10;;;;;;;0.03;90.30;101109.72;8466335;28;20065;-69
2022/01/12 18:42:23;;;;;;;98.75;33.95;;;;;;;0.09;90.84;101098.34;8486076;28;20043;-69
2022/01/12 18:46:24;;;;;;;99.90;34.40;;;;;;;0.11;91.25;101106.91;8483802;28;20047;-70
2022/01/12 18:50:25;;;;;;;97.15;34.88;;;;;;;0.12;91.39;101113.88;8495477;28;20065;-69
2022/01/12 18:54:26;;;;;;;109.63;35.08;;;;;;;0.17;92.12;101115.97;8467625;28;20404;-70
2022/01/12 18:58:29;;;;;;;108.97;37.05;;;;;;;0.19;92.44;101120.09;8456630;28;20516;-70
2022/01/12 19:02:31;;;;;;;109.70;36.70;;;;;;;0.18;92.72;101113.13;8479639;28;20458;-70
2022/01/12 19:06:36;;;;;;;105.68;35.53;;;;;;;0.18;92.91;101118.44;8465166;28;20499;-70
2022/01/12 19:10:37;;;;;;;114.93;37.35;;;;;;;0.18;93.09;101118.44;8476190;28;20051;-70
2022/01/12 19:14:43;;;;;;;115.20;38.22;;;;;;;0.21;93.44;101114.59;8468740;28;20051;-70
2022/01/12 19:18:44;;;;;;;112.28;38.90;;;;;;;0.21;93.22;101126.00;8460152;28;20055;-69
2022/01/12 19:22:46;;;;;;;122.53;41.80;;;;;;;0.20;93.11;101127.03;8483708;28;20483;-71
2022/01/12 19:26:47;;;;;;;128.93;42.90;;;;;;;0.22;93.46;101135.63;8478342;28;20104;-70
2022/01/12 19:30:49;;;;;;;136.25;45.33;;;;;;;0.22;93.50;101146.25;8483066;28;20043;-70
2022/01/12 19:34:51;;;;;;;124.35;42.92;;;;;;;0.19;93.20;101154.63;8450135;28;20052;-71
2022/01/12 19:38:53;;;;;;;112.85;38.30;;;;;;;0.21;93.42;101144.59;8471450;28;20050;-70
2022/01/12 19:42:57;;;;;;;112.82;39.45;;;;;;;0.21;93.26;101155.22;8472928;27;20045;-70
2022/01/12 19:47:02;;;;;;;105.45;34.90;;;;;;;0.21;93.72;101154.44;8473465;27;20554;-70